Time;durP1;ratioP1;P1;durP2;ratioP2;P2;SDS_P1;SDS_P2;PMS_P1;PMS_P2;Temp;Humidity;BMP_temperature;BMP_pressure;BME280_temperature;BME280_humidity;BME280_pressure;Samples;Min_cycle;Max_cycle;Signal;HPM_P1;HPM_P2
2022/07/26 00:01:32;;;;;;;4.55;2.00;;;23.40;62.50;;;22.80;48.72;97193.28;5031044;28;20398;-76
2022/07/26 00:03:59;;;;;;;7.55;1.90;;;23.40;62.70;;;22.76;48.91;97203.19;5030820;28;20884;-76
2022/07/26 00:06:26;;;;;;;2.73;1.60;;;23.30;62.80;;;22.82;48.62;97203.75;5031284;28;20446;-76
2022/07/26 00:08:53;;;;;;;3.65;1.70;;;23.40;62.60;;;22.77;49.10;97216.34;5031240;28;20400;-76
2022/07/26 00:11:20;;;;;;;4.75;1.40;;;23.30;63.80;;;22.76;49.35;97220.16;5030440;28;20480;-76
2022/07/26 00:13:46;;;;;;;3.60;1.67;;;23.30;63.20;;;22.67;49.36;97224.81;5030778;28;20414;-76
2022/07/26 00:16:12;;;;;;;4.22;1.58;;;23.20;63.40;;;22.58;49.85;97226.81;5029873;28;20414;-76
2022/07/26 00:18:38;;;;;;;3.15;1.50;;;23.20;63.60;;;22.64;49.67;97222.78;5030978;28;20406;-76
2022/07/26 00:21:05;;;;;;;5.85;1.58;;;23.20;63.90;;;22.68;49.74;97223.69;5031099;28;20403;-76
2022/07/26 00:23:31;;;;;;;3.30;1.75;;;23.20;64.00;;;22.65;49.64;97223.56;5030567;28;20406;-76
2022/07/26 00:25:58;;;;;;;2.83;1.70;;;23.20;63.80;;;22.65;49.85;97218.16;5021321;28;20407;-77
2022/07/26 00:28:24;;;;;;;4.40;1.55;;;23.20;64.10;;;22.65;49.80;97221.66;5030985;28;20406;-76
2022/07/26 00:30:50;;;;;;;3.72;1.63;;;23.20;64.20;;;22.68;49.95;97222.91;5030999;28;20461;-77
2022/07/26 00:33:16;;;;;;;5.93;1.55;;;23.20;64.20;;;22.75;49.95;97212.38;5023141;28;20963;-77
2022/07/26 00:35:42;;;;;;;4.38;1.70;;;23.30;64.30;;;22.68;50.15;97225.63;5030699;28;20403;-76
2022/07/26 00:38:08;;;;;;;3.47;1.60;;;23.20;64.30;;;22.76;49.75;97222.88;5030809;28;20402;-77
2022/07/26 00:40:34;;;;;;;5.05;1.50;;;23.20;64.40;;;22.63;50.19;97217.75;5030815;28;20457;-76
2022/07/26 00:43:02;;;;;;;9.50;1.73;;;23.30;64.20;;;22.52;50.62;97225.44;5012597;28;20435;-76
2022/07/26 00:45:28;;;;;;;4.45;1.60;;;23.10;64.60;;;22.65;50.13;97228.97;5019985;28;20493;-76
2022/07/26 00:47:54;;;;;;;4.95;1.45;;;23.20;64.80;;;22.73;50.47;97226.22;5030571;28;20417;-76
2022/07/26 00:50:20;;;;;;;7.57;1.80;;;23.20;64.90;;;22.66;50.66;97219.75;5030441;28;20434;-77
2022/07/26 00:52:48;;;;;;;4.15;2.00;;;23.20;65.10;;;22.75;50.42;97225.88;5030341;28;20431;-77
2022/07/26 00:55:16;;;;;;;4.68;1.60;;;23.20;65.00;;;22.76;50.43;97230.16;5030677;28;20395;-76
2022/07/26 00:57:43;;;;;;;3.33;1.60;;;23.30;65.00;;;22.71;50.85;97233.81;5030575;28;20478;-78
2022/07/26 01:00:14;;;;;;;5.60;1.40;;;23.30;65.10;;;22.83;50.42;97245.81;5030645;28;20407;-76
2022/07/26 01:02:41;;;;;;;4.28;1.63;;;23.30;65.80;;;22.80;50.48;97249.16;5029133;28;20441;-75
2022/07/26 01:05:07;;;;;;;3.42;1.40;;;23.30;65.10;;;22.81;51.05;97256.16;5030361;28;20410;-75
2022/07/26 01:07:35;;;;;;;5.93;1.30;;;23.30;65.50;;;22.75;52.72;97244.78;5030437;28;20407;-76
2022/07/26 01:10:01;;;;;;;4.25;1.30;;;23.30;67.60;;;22.78;52.58;97246.78;5030726;28;20779;-76
2022/07/26 01:12:27;;;;;;;3.20;1.30;;;23.30;68.00;;;22.69;52.88;97254.97;5030485;28;20907;-77
2022/07/26 01:14:53;;;;;;;4.18;1.40;;;23.20;67.80;;;22.66;53.28;97250.22;5030138;28;20433;-77
2022/07/26 01:17:20;;;;;;;4.40;1.40;;;23.20;68.40;;;22.63;54.39;97253.56;5029279;28;20435;-76
2022/07/26 01:19:46;;;;;;;3.05;1.38;;;23.20;69.50;;;22.55;54.92;97259.88;5030567;28;20759;-74
2022/07/26 01:22:13;;;;;;;2.55;1.45;;;23.10;70.00;;;22.49;55.43;97252.28;5032027;28;20403;-76
2022/07/26 01:24:39;;;;;;;3.00;1.42;;;23.00;70.80;;;22.39;56.23;97262.38;5033894;28;20475;-75
2022/07/26 01:27:05;;;;;;;3.60;1.50;;;22.90;71.70;;;22.33;56.97;97257.50;5034290;28;20399;-75
2022/07/26 01:29:31;;;;;;;5.20;1.30;;;22.90;72.60;;;22.26;57.88;97255.31;5034420;28;20410;-76
2022/07/26 01:31:57;;;;;;;3.03;1.50;;;22.80;73.60;;;22.23;58.14;97252.53;5034186;28;20423;-76
2022/07/26 01:34:23;;;;;;;3.10;1.60;;;22.80;74.20;;;22.22;58.38;97249.03;5034104;28;20414;-74
2022/07/26 01:36:49;;;;;;;3.20;1.50;;;22.80;74.60;;;22.19;58.57;97251.59;5034076;28;20405;-76
2022/07/26 01:39:16;;;;;;;3.20;1.60;;;22.80;75.10;;;22.15;58.95;97253.38;5034169;28;20394;-76
2022/07/26 01:41:42;;;;;;;3.67;1.50;;;22.70;75.60;;;22.15;59.15;97253.38;5034080;28;20490;-76
2022/07/26 01:44:08;;;;;;;4.55;1.50;;;22.70;76.10;;;22.06;59.32;97250.72;5033600;28;20490;-76
2022/07/26 01:46:34;;;;;;;4.07;1.48;;;22.70;76.30;;;21.98;59.41;97251.59;5033988;28;20406;-76
2022/07/26 01:49:01;;;;;;;2.67;1.48;;;22.60;76.80;;;21.86;59.55;97248.78;5034157;28;20418;-76
2022/07/26 01:51:27;;;;;;;3.20;1.30;;;22.50;76.70;;;21.90;59.47;97258.56;5033793;28;20977;-76
2022/07/26 01:53:53;;;;;;;3.00;1.35;;;22.50;77.10;;;21.87;59.15;97253.84;5033475;28;20403;-76
2022/07/26 01:56:20;;;;;;;4.05;1.50;;;22.50;76.80;;;21.82;58.96;97261.31;5033750;28;20780;-76
2022/07/26 01:58:46;;;;;;;1.70;1.30;;;22.40;76.60;;;21.77;59.19;97254.22;5033718;28;20493;-76
2022/07/26 02:01:12;;;;;;;2.87;1.47;;;22.30;77.00;;;21.74;59.07;97249.47;5033805;28;20397;-76
2022/07/26 02:03:38;;;;;;;3.33;1.53;;;22.30;77.10;;;21.71;59.42;97243.97;5033315;28;20402;-76
2022/07/26 02:06:05;;;;;;;2.60;1.30;;;22.30;77.60;;;21.59;60.41;97250.03;5033799;28;20406;-76
2022/07/26 02:08:31;;;;;;;4.45;1.30;;;22.20;78.20;;;21.69;59.98;97246.19;5033467;28;20414;-76
2022/07/26 02:11:00;;;;;;;1.85;1.30;;;22.20;78.50;;;21.61;60.54;97247.81;5033514;28;20423;-76
2022/07/26 02:13:29;;;;;;;4.82;1.33;;;22.20;79.30;;;21.62;60.64;97236.72;5032991;28;20403;-77
2022/07/26 02:15:57;;;;;;;3.05;1.30;;;22.20;79.50;;;21.60;60.70;97243.53;5033455;28;20418;-76
2022/07/26 02:18:24;;;;;;;2.53;1.25;;;22.20;79.90;;;21.55;61.23;97243.75;5026155;28;20432;-76
2022/07/26 02:20:50;;;;;;;3.40;1.20;;;22.20;80.30;;;21.62;60.98;97246.72;5033311;28;20411;-76
2022/07/26 02:23:15;;;;;;;2.97;1.50;;;22.20;80.40;;;21.57;61.02;97236.13;5032982;28;20395;-76
2022/07/26 02:25:41;;;;;;;5.20;1.45;;;22.10;80.60;;;21.57;60.87;97231.53;5031892;28;20956;-76
2022/07/26 02:28:07;;;;;;;2.15;1.20;;;22.20;80.60;;;21.58;61.02;97237.69;5033188;28;20406;-76
2022/07/26 02:30:35;;;;;;;4.82;1.45;;;22.20;80.70;;;21.42;61.59;97234.00;5033132;28;20415;-76
2022/07/26 02:33:01;;;;;;;1.60;1.25;;;22.10;81.00;;;21.42;61.85;97234.78;5032406;28;20474;-76
2022/07/26 02:35:27;;;;;;;3.70;1.50;;;22.00;81.70;;;21.37;61.43;97236.84;5030775;28;20509;-76
2022/07/26 02:37:53;;;;;;;1.90;1.30;;;22.00;81.80;;;21.46;61.18;97237.59;5032840;28;20465;-76
2022/07/26 02:40:18;;;;;;;2.25;1.20;;;22.00;81.80;;;21.40;61.53;97238.91;5032994;28;20407;-76
2022/07/26 02:42:44;;;;;;;5.15;1.50;;;22.00;81.70;;;21.26;61.64;97235.66;5032674;28;20453;-76
2022/07/26 02:45:10;;;;;;;2.88;1.55;;;21.90;81.70;;;21.38;61.08;97236.53;5031699;28;20414;-75
2022/07/26 02:47:46;;;;;;;2.58;1.50;;;22.00;81.60;;;21.13;61.89;97240.09;5032780;28;20411;-76
2022/07/26 02:50:16;;;;;;;3.50;1.40;;;21.70;82.10;;;21.12;61.89;97233.13;5032924;28;20431;-76
2022/07/26 02:52:42;;;;;;;3.20;1.42;;;21.70;82.80;;;21.20;61.58;97233.13;5032595;28;20402;-75
2022/07/26 02:55:09;;;;;;;4.07;1.57;;;21.70;82.80;;;21.08;61.98;97229.50;5032563;28;20407;-75
2022/07/26 02:57:35;;;;;;;2.17;1.40;;;21.60;82.60;;;20.84;62.70;97238.91;5032699;28;20894;-76
2022/07/26 03:00:01;;;;;;;2.40;1.35;;;21.50;83.50;;;20.95;62.22;97222.44;5032710;28;20407;-76
2022/07/26 03:02:27;;;;;;;1.67;1.20;;;21.50;83.70;;;21.00;62.17;97233.81;5032654;28;20406;-76
2022/07/26 03:04:54;;;;;;;4.25;1.50;;;21.60;83.90;;;21.04;61.54;97224.00;5032191;28;20449;-76
2022/07/26 03:07:20;;;;;;;4.50;1.40;;;21.70;82.80;;;20.98;61.82;97219.06;5032538;28;20741;-76
2022/07/26 03:09:46;;;;;;;2.28;1.20;;;21.60;82.90;;;20.92;61.96;97218.47;5032537;28;20405;-76
2022/07/26 03:12:12;;;;;;;1.90;1.23;;;21.50;83.20;;;21.08;61.39;97210.66;5032433;28;20963;-76
2022/07/26 03:14:37;;;;;;;3.35;1.40;;;21.60;83.30;;;21.06;61.44;97213.66;5031982;28;20418;-77
2022/07/26 03:17:03;;;;;;;1.98;1.30;;;21.60;82.90;;;21.01;62.12;97216.53;5032284;28;20410;-77
2022/07/26 03:19:29;;;;;;;2.67;1.40;;;21.60;83.20;;;21.01;61.58;97230.00;5032239;28;20915;-77
2022/07/26 03:21:57;;;;;;;5.15;1.63;;;21.60;83.20;;;20.98;61.67;97225.25;5032489;28;20407;-77
2022/07/26 03:24:22;;;;;;;2.25;1.30;;;21.60;83.20;;;20.98;61.91;97227.94;5031746;28;20411;-77
2022/07/26 03:26:48;;;;;;;2.72;1.33;;;21.60;83.50;;;20.99;61.58;97224.16;5032025;28;20406;-77
2022/07/26 03:29:15;;;;;;;3.35;1.35;;;21.60;83.50;;;20.80;62.18;97227.22;5032116;28;20406;-75
2022/07/26 03:31:40;;;;;;;2.72;1.40;;;21.40;83.80;;;20.84;61.91;97232.72;5032102;28;20430;-74
2022/07/26 03:34:06;;;;;;;4.47;1.63;;;21.40;83.80;;;20.73;62.41;97232.31;5031485;28;20409;-76
2022/07/26 03:36:32;;;;;;;3.65;1.48;;;21.40;84.40;;;20.57;63.16;97230.44;5031830;28;20414;-75
2022/07/26 03:39:00;;;;;;;3.75;1.45;;;21.20;85.00;;;20.58;63.04;97240.09;5032157;28;20406;-75
2022/07/26 03:41:26;;;;;;;4.20;1.70;;;21.20;85.60;;;20.55;63.27;97244.19;5031783;28;20402;-76
2022/07/26 03:43:52;;;;;;;3.42;1.48;;;21.10;86.00;;;20.46;63.67;97241.50;5031332;28;20949;-75
2022/07/26 03:46:17;;;;;;;4.77;1.40;;;21.10;86.30;;;20.47;63.43;97243.09;5030588;28;20430;-76
2022/07/26 03:48:43;;;;;;;4.37;1.53;;;21.10;86.50;;;20.38;63.93;97247.69;5031421;28;20399;-76
2022/07/26 03:51:09;;;;;;;3.47;1.60;;;21.00;87.20;;;20.32;64.04;97235.47;5035558;28;20421;-75
2022/07/26 03:53:35;;;;;;;6.20;1.60;;;21.00;87.60;;;20.18;64.82;97240.22;5040539;28;20405;-76
2022/07/26 03:58:48;;;;;;;3.30;1.42;;;20.80;88.30;;;20.15;65.11;97240.09;5037628;28;20402;-76
2022/07/26 04:01:14;;;;;;;2.67;1.60;;;20.80;89.30;;;20.04;65.26;97240.38;5041141;28;20750;-76
2022/07/26 04:03:40;;;;;;;3.30;1.60;;;20.70;89.40;;;20.07;65.04;97236.28;5041228;28;20490;-76
2022/07/26 04:06:06;;;;;;;4.28;1.58;;;20.70;90.10;;;20.16;64.76;97241.66;5039878;28;20775;-75
2022/07/26 04:08:32;;;;;;;5.85;1.60;;;20.70;89.80;;;20.14;65.04;97243.88;5041048;28;20409;-76
2022/07/26 04:10:58;;;;;;;2.50;1.50;;;20.70;89.90;;;20.14;65.00;97241.97;5041165;28;20427;-77
2022/07/26 04:13:26;;;;;;;3.38;1.50;;;20.70;89.90;;;20.14;64.61;97238.50;5039244;28;20950;-77
2022/07/26 04:15:52;;;;;;;3.03;1.90;;;20.70;89.70;;;20.07;64.85;97245.13;5041090;28;20394;-76
2022/07/26 04:18:18;;;;;;;3.83;1.70;;;20.70;89.80;;;20.12;64.82;97248.78;5041035;28;20415;-77
2022/07/26 04:20:44;;;;;;;3.87;1.60;;;20.70;90.00;;;20.11;64.65;97245.28;5039620;28;20490;-79
2022/07/26 04:23:12;;;;;;;3.08;1.63;;;20.80;89.70;;;20.10;64.72;97249.88;5038029;28;20555;-77
2022/07/26 04:25:38;;;;;;;3.20;1.60;;;20.70;89.90;;;20.10;64.82;97260.63;5039071;28;20407;-76
2022/07/26 04:28:04;;;;;;;4.05;1.85;;;20.80;90.00;;;20.09;64.98;97261.72;5039431;28;20417;-76
2022/07/26 04:30:31;;;;;;;4.17;1.60;;;20.70;90.00;;;20.05;65.21;97262.69;5040810;28;20771;-78
2022/07/26 04:32:57;;;;;;;3.88;2.03;;;20.70;90.20;;;20.13;64.99;97259.22;5038893;28;20842;-76
2022/07/26 04:35:24;;;;;;;2.00;1.70;;;20.70;90.20;;;20.07;65.16;97255.88;5040821;28;20415;-75
2022/07/26 04:37:50;;;;;;;4.47;1.80;;;20.70;90.30;;;20.06;65.00;97259.69;5041136;28;20406;-76
2022/07/26 04:40:19;;;;;;;2.93;1.60;;;20.70;90.10;;;20.02;65.04;97253.34;5039395;28;20411;-76
2022/07/26 04:42:45;;;;;;;4.78;2.08;;;20.70;90.20;;;19.95;65.15;97261.09;5040143;28;20424;-76
2022/07/26 04:45:12;;;;;;;3.50;1.90;;;20.60;90.30;;;19.89;65.70;97256.19;5040913;28;20410;-76
2022/07/26 04:47:41;;;;;;;4.43;2.10;;;20.60;90.70;;;19.85;65.73;97263.25;5038918;28;20407;-76
2022/07/26 04:50:09;;;;;;;6.97;2.00;;;20.50;91.00;;;19.86;66.04;97256.78;5040169;28;20526;-76
2022/07/26 04:52:35;;;;;;;3.22;2.05;;;20.50;91.20;;;19.87;65.95;97264.53;5041123;28;20516;-75
2022/07/26 04:55:01;;;;;;;3.65;1.80;;;20.50;91.10;;;19.89;65.77;97272.28;5038925;28;20510;-76
2022/07/26 04:57:27;;;;;;;4.50;2.00;;;20.50;91.60;;;19.88;66.00;97270.72;5039785;28;20401;-76
2022/07/26 04:59:53;;;;;;;3.43;2.10;;;20.60;91.20;;;19.94;66.03;97272.94;5040933;28;20646;-75
2022/07/26 05:02:19;;;;;;;2.77;1.60;;;20.60;91.20;;;20.04;65.04;97275.31;5039077;28;20409;-78
2022/07/26 05:04:46;;;;;;;2.25;1.60;;;20.70;90.80;;;20.08;65.28;97275.47;5034681;28;20888;-76
2022/07/26 05:07:12;;;;;;;3.83;1.88;;;20.70;90.90;;;20.15;65.36;97270.41;5029224;28;20447;-74
2022/07/26 05:09:38;;;;;;;5.38;2.00;;;20.70;90.90;;;20.14;65.11;97276.91;5040064;28;20578;-77
2022/07/26 05:12:04;;;;;;;2.67;1.63;;;20.70;90.80;;;20.20;65.02;97272.97;5029259;28;20457;-77
2022/07/26 05:14:30;;;;;;;4.65;1.83;;;20.80;90.80;;;20.41;64.79;97273.16;5028791;28;20410;-76
2022/07/26 05:16:56;;;;;;;5.30;2.25;;;21.00;90.80;;;20.60;64.19;97273.59;5029968;28;20404;-77
2022/07/26 05:19:22;;;;;;;5.68;2.05;;;21.10;90.50;;;20.84;63.29;97289.25;5030311;28;20481;-76
2022/07/26 05:21:50;;;;;;;3.35;1.77;;;21.40;89.50;;;21.03;62.34;97283.50;5030318;28;20407;-75
2022/07/26 05:24:16;;;;;;;2.95;1.90;;;21.60;88.30;;;21.18;62.50;97278.44;5030063;28;20567;-75
2022/07/26 05:26:42;;;;;;;4.80;2.23;;;21.70;87.80;;;21.36;61.47;97281.84;5030616;28;20488;-75
2022/07/26 05:29:08;;;;;;;4.90;2.10;;;21.90;86.70;;;21.42;60.34;97287.84;5030245;28;20399;-76
2022/07/26 05:31:34;;;;;;;7.67;2.10;;;22.00;84.80;;;21.42;60.18;97291.34;5030212;28;20430;-76
2022/07/26 05:34:02;;;;;;;5.82;2.40;;;21.90;84.20;;;21.22;60.77;97290.13;5029796;28;20418;-76
2022/07/26 05:36:28;;;;;;;4.72;1.90;;;21.90;84.50;;;21.02;61.96;97298.88;5030320;28;20410;-76
2022/07/26 05:38:55;;;;;;;4.00;2.15;;;21.70;85.30;;;20.88;62.61;97295.56;5030246;28;20486;-75
2022/07/26 05:41:21;;;;;;;7.20;2.78;;;21.50;86.50;;;20.73;62.75;97299.56;5030195;28;20399;-76
2022/07/26 05:43:47;;;;;;;4.43;2.40;;;21.30;87.00;;;20.64;63.34;97296.09;5029696;28;20407;-76
2022/07/26 05:46:16;;;;;;;9.77;2.30;;;21.30;88.00;;;20.57;63.39;97295.78;5030169;28;20403;-75
2022/07/26 05:48:43;;;;;;;4.65;2.22;;;21.20;88.50;;;20.45;63.98;97300.97;5059054;22;20460;-78
2022/07/26 05:51:09;;;;;;;6.05;2.70;;;21.00;89.10;;;20.41;64.48;97305.41;5050280;28;20424;-78
2022/07/26 05:53:36;;;;;;;4.70;2.45;;;21.00;90.10;;;20.40;64.26;97304.63;5049712;28;20413;-78
2022/07/26 05:56:05;;;;;;;5.53;2.30;;;21.00;90.00;;;20.37;64.07;97297.19;5049960;28;20418;-78
2022/07/26 05:58:31;;;;;;;5.30;2.42;;;21.00;89.80;;;20.45;64.48;97299.06;5050224;28;20405;-78
2022/07/26 06:00:57;;;;;;;6.60;2.38;;;21.10;90.30;;;20.50;64.35;97300.03;5049197;28;20463;-78
2022/07/26 06:03:23;;;;;;;4.93;2.60;;;21.10;90.20;;;20.63;64.48;97299.06;5049178;28;20405;-77
2022/07/26 06:05:50;;;;;;;5.45;2.53;;;21.20;90.30;;;20.72;62.56;97297.97;5049665;28;20424;-78
2022/07/26 06:08:17;;;;;;;5.00;2.17;;;21.30;88.40;;;20.76;60.79;97306.19;5041925;28;20415;-78
2022/07/26 06:10:43;;;;;;;6.35;2.28;;;21.30;85.40;;;20.86;59.44;97303.97;5053169;28;20875;-78
2022/07/26 06:13:11;;;;;;;5.72;2.08;;;21.40;83.40;;;20.86;59.28;97308.56;5053198;28;20407;-77
2022/07/26 06:15:37;;;;;;;7.78;2.63;;;21.40;82.50;;;20.89;58.65;97307.94;5053477;28;20448;-78
2022/07/26 06:18:03;;;;;;;4.25;1.90;;;21.50;81.50;;;20.94;58.57;97301.56;5053509;28;20902;-78
2022/07/26 06:20:29;;;;;;;6.80;2.10;;;21.50;81.40;;;20.94;58.14;97309.66;5052800;28;21048;-78
2022/07/26 06:22:57;;;;;;;6.50;2.08;;;21.50;80.70;;;20.98;57.98;97308.69;5052920;28;20523;-78
2022/07/26 06:25:23;;;;;;;4.30;1.85;;;21.60;80.50;;;21.00;57.64;97309.16;5051863;28;20405;-78
2022/07/26 06:27:49;;;;;;;7.50;1.85;;;21.60;79.60;;;21.02;56.19;97309.63;5053142;28;20878;-77
2022/07/26 06:30:16;;;;;;;7.90;2.03;;;21.60;77.60;;;21.07;53.88;97304.06;5052958;28;20405;-78
2022/07/26 06:32:43;;;;;;;6.70;1.80;;;21.60;74.50;;;21.06;55.00;97307.06;5052786;28;20821;-78
2022/07/26 06:35:09;;;;;;;7.40;1.60;;;21.60;75.60;;;21.07;53.99;97300.59;5052895;28;20401;-77
2022/07/26 06:37:36;;;;;;;5.50;1.65;;;21.60;73.80;;;21.08;53.64;97297.59;5052850;28;20754;-77
2022/07/26 06:40:02;;;;;;;6.53;1.77;;;21.60;73.80;;;21.12;52.33;97311.19;5053080;28;20429;-77
2022/07/26 06:42:29;;;;;;;6.03;1.63;;;21.70;72.50;;;21.14;51.58;97304.38;5053137;28;20401;-77
2022/07/26 06:44:55;;;;;;;4.28;1.50;;;21.70;70.60;;;21.19;51.53;97306.94;5052317;28;20402;-78
2022/07/26 06:47:22;;;;;;;4.20;1.48;;;21.70;71.00;;;21.17;51.15;97294.91;5052602;28;20421;-78
2022/07/26 06:49:48;;;;;;;4.70;1.38;;;21.80;69.70;;;21.20;51.89;97302.34;5052613;28;20397;-78
2022/07/26 06:52:14;;;;;;;5.30;1.30;;;21.80;70.60;;;21.27;49.11;97299.16;5052501;28;20428;-79
2022/07/26 06:54:40;;;;;;;6.10;1.35;;;21.80;67.40;;;21.30;49.28;97318.13;5052309;28;20397;-78
2022/07/26 06:57:06;;;;;;;3.75;1.40;;;21.90;67.20;;;21.29;49.07;97303.09;5052710;28;20743;-78
2022/07/26 06:59:32;;;;;;;3.50;1.30;;;21.80;66.70;;;21.34;48.50;97315.59;5052612;28;20492;-78
2022/07/26 07:01:57;;;;;;;8.15;1.60;;;21.90;66.50;;;21.43;47.75;97297.50;5052549;28;20400;-78
2022/07/26 07:04:25;;;;;;;3.85;1.23;;;21.90;65.40;;;21.46;48.11;97303.03;5051960;28;20429;-78
2022/07/26 07:06:51;;;;;;;7.80;1.20;;;22.00;65.50;;;21.51;46.57;97297.47;5052308;28;20390;-78
2022/07/26 07:09:17;;;;;;;4.87;1.33;;;22.00;63.30;;;21.47;48.38;97299.22;5052116;28;20405;-76
2022/07/26 07:11:43;;;;;;;2.43;1.13;;;22.00;65.10;;;21.53;49.23;97297.13;5052408;28;20419;-77
2022/07/26 07:14:09;;;;;;;3.05;1.20;;;22.10;66.60;;;21.57;48.10;97303.47;5051667;28;20485;-77
2022/07/26 07:16:35;;;;;;;4.25;1.00;;;22.10;65.90;;;21.61;48.38;97304.41;5052082;28;20401;-77
2022/07/26 07:19:01;;;;;;;5.55;1.25;;;22.20;65.50;;;21.67;46.81;97305.78;5039984;28;20403;-76
2022/07/26 07:21:28;;;;;;;4.13;1.30;;;22.30;63.60;;;21.77;46.16;97310.81;5031951;28;20487;-76
2022/07/26 07:23:54;;;;;;;3.53;1.30;;;22.30;62.50;;;21.82;44.62;97313.31;5031795;28;20457;-76
2022/07/26 07:26:20;;;;;;;3.47;1.10;;;22.30;60.80;;;21.71;45.56;97304.03;5032280;28;20498;-79
2022/07/26 07:28:46;;;;;;;5.43;1.90;;;22.30;61.50;;;21.71;46.71;97301.34;5032020;28;20411;-76
2022/07/26 07:31:12;;;;;;;3.25;1.20;;;22.30;63.00;;;21.80;44.98;97301.31;5030616;28;20426;-76
2022/07/26 07:33:37;;;;;;;3.78;1.27;;;22.30;61.00;;;21.76;46.02;97303.84;5031517;28;20447;-77
2022/07/26 07:36:04;;;;;;;6.80;1.20;;;22.30;62.00;;;21.82;45.82;97305.22;5031916;28;20411;-78
2022/07/26 07:38:31;;;;;;;5.43;1.45;;;22.30;62.00;;;21.81;45.56;97292.88;5031865;28;20407;-78
2022/07/26 07:40:57;;;;;;;3.45;1.20;;;22.40;61.20;;;21.84;46.16;97305.69;5032356;28;20399;-79
2022/07/26 07:43:23;;;;;;;6.60;1.33;;;22.40;62.10;;;21.89;45.74;97305.50;5033098;28;20782;-79
2022/07/26 07:45:49;;;;;;;5.35;1.20;;;22.40;61.70;;;21.94;46.14;97299.94;5031857;28;20407;-77
2022/07/26 07:48:15;;;;;;;5.75;1.60;;;22.50;62.60;;;22.05;46.72;97299.56;5031722;28;20415;-78
2022/07/26 07:50:41;;;;;;;2.92;1.17;;;22.60;63.60;;;22.11;46.01;97285.56;5031900;28;20438;-76
2022/07/26 07:53:07;;;;;;;7.90;1.40;;;22.70;62.10;;;22.27;45.35;97291.97;5031192;28;20453;-77
2022/07/26 07:55:34;;;;;;;6.03;1.50;;;22.70;61.40;;;22.34;44.85;97286.03;5031530;28;20415;-77
2022/07/26 07:58:00;;;;;;;2.30;1.15;;;22.80;60.60;;;22.42;44.88;97279.78;5031509;28;20484;-78
2022/07/26 08:00:26;;;;;;;3.40;1.13;;;22.90;60.60;;;22.47;44.25;97286.91;5030297;28;20742;-78
2022/07/26 08:02:52;;;;;;;9.70;1.30;;;23.00;60.00;;;22.61;42.79;97288.22;5031098;28;20399;-78
2022/07/26 08:05:19;;;;;;;5.63;1.20;;;23.10;58.30;;;22.50;44.21;97284.34;5030266;28;20465;-78
2022/07/26 08:07:45;;;;;;;3.20;1.10;;;23.00;59.30;;;22.55;44.90;97286.06;5033284;28;20403;-78
2022/07/26 08:10:11;;;;;;;3.28;1.20;;;23.10;60.50;;;22.60;43.78;97294.72;5048349;28;20401;-78
2022/07/26 08:12:38;;;;;;;5.57;1.35;;;23.10;59.30;;;22.54;42.63;97282.56;5048654;28;20437;-77
2022/07/26 08:15:06;;;;;;;4.63;1.20;;;23.10;57.90;;;22.51;42.57;97291.31;5043800;28;20409;-77
2022/07/26 08:17:32;;;;;;;4.47;1.27;;;23.00;58.10;;;22.50;43.16;97291.63;5037160;28;20512;-77
2022/07/26 08:19:58;;;;;;;2.72;1.50;;;23.00;58.40;;;22.57;43.38;97302.69;5052564;28;20400;-79
2022/07/26 08:22:24;;;;;;;4.13;1.17;;;23.10;58.70;;;22.64;43.80;97286.75;5053961;28;20421;-77
2022/07/26 08:24:51;;;;;;;3.10;1.20;;;23.10;58.50;;;22.75;43.15;97286.06;5051042;28;21012;-79
2022/07/26 08:27:17;;;;;;;6.30;1.70;;;23.30;58.40;;;22.90;41.49;97294.63;5051107;28;20401;-77
2022/07/26 08:29:44;;;;;;;5.38;1.55;;;23.40;56.70;;;22.98;41.24;97286.47;5050977;28;20405;-78
2022/07/26 08:32:10;;;;;;;5.03;1.38;;;23.50;56.40;;;22.99;41.75;97285.34;5049119;28;20497;-79
2022/07/26 08:34:36;;;;;;;6.55;1.15;;;23.60;56.90;;;23.15;42.18;97288.19;5050266;28;20424;-78
2022/07/26 08:37:02;;;;;;;2.50;1.00;;;23.60;57.20;;;23.26;41.03;97302.81;5058937;28;20439;-78
2022/07/26 08:39:28;;;;;;;4.63;1.30;;;23.80;56.90;;;23.29;41.60;97294.06;5052922;28;20404;-79
2022/07/26 08:41:54;;;;;;;3.67;1.05;;;23.80;56.40;;;23.41;41.96;97295.97;5050954;28;20394;-77
2022/07/26 08:44:20;;;;;;;5.15;1.27;;;23.90;56.80;;;23.43;40.91;97307.25;5045206;28;20410;-78
2022/07/26 08:46:48;;;;;;;4.65;1.30;;;24.00;56.00;;;23.50;40.09;97308.31;5050040;28;20412;-77
2022/07/26 08:49:14;;;;;;;5.10;1.10;;;24.00;55.00;;;23.57;40.85;97301.53;5050332;28;20413;-78
2022/07/26 08:51:42;;;;;;;5.13;1.20;;;24.10;55.40;;;23.63;41.02;97302.91;5050273;28;20471;-77
2022/07/26 08:54:10;;;;;;;5.82;1.20;;;24.10;55.70;;;23.75;38.88;97295.59;5049863;28;20400;-77
2022/07/26 08:56:40;;;;;;;7.85;1.80;;;24.20;53.90;;;23.83;39.30;97296.59;5048721;28;20397;-78
2022/07/26 08:59:15;;;;;;;4.45;1.23;;;24.40;54.00;;;23.89;38.84;97304.16;5038146;28;20894;-77
2022/07/26 09:01:57;;;;;;;8.27;1.25;;;24.40;53.60;;;23.69;38.77;97296.13;5030642;28;20411;-78
2022/07/26 09:04:27;;;;;;;3.33;1.25;;;24.20;53.10;;;23.57;39.25;97306.94;5030285;28;20509;-77
2022/07/26 09:06:56;;;;;;;4.13;0.93;;;24.20;53.70;;;23.68;39.51;97298.03;5030553;28;20395;-77
2022/07/26 09:09:22;;;;;;;4.10;1.10;;;24.20;54.20;;;23.90;39.09;97307.63;5030606;28;20406;-77
2022/07/26 09:11:48;;;;;;;2.85;1.30;;;24.40;54.00;;;24.12;37.19;97303.66;5030457;28;20418;-77
2022/07/26 09:14:14;;;;;;;3.60;1.13;;;24.50;51.80;;;24.13;37.54;97310.66;5030112;28;20490;-77
2022/07/26 09:16:40;;;;;;;4.88;1.50;;;24.70;51.90;;;24.16;38.15;97313.44;5029371;28;20490;-77
2022/07/26 09:19:20;;;;;;;2.50;1.20;;;24.70;52.30;;;24.36;38.53;97311.75;5030600;28;20891;-77
2022/07/26 09:21:47;;;;;;;5.15;1.23;;;24.80;53.30;;;24.49;37.62;97313.31;5030653;28;20423;-77
2022/07/26 09:24:30;;;;;;;3.97;1.17;;;25.00;52.20;;;24.54;37.85;97320.38;5030265;28;20477;-77
2022/07/26 09:26:57;;;;;;;5.45;1.40;;;25.00;52.30;;;24.47;37.96;97312.06;5041307;28;20898;-77
2022/07/26 09:29:23;;;;;;;4.00;1.17;;;25.00;52.10;;;24.24;37.72;97307.16;5045907;28;20792;-75
2022/07/26 09:31:49;;;;;;;2.30;1.10;;;24.80;51.90;;;24.25;38.14;97322.25;5045242;28;20416;-77
2022/07/26 09:34:24;;;;;;;5.00;1.40;;;24.80;52.40;;;24.40;36.11;97333.50;5047974;28;20412;-75
2022/07/26 09:36:51;;;;;;;3.38;1.27;;;24.80;50.80;;;24.37;37.48;97315.22;5051891;28;20432;-76
2022/07/26 09:39:18;;;;;;;2.17;1.00;;;24.80;51.90;;;24.43;37.44;97325.50;5061204;28;20490;-77
2022/07/26 09:41:44;;;;;;;3.10;1.02;;;24.90;52.20;;;24.41;36.78;97335.09;5061329;28;20407;-77
2022/07/26 09:44:21;;;;;;;3.97;1.10;;;25.00;50.90;;;24.20;36.49;97322.50;5072388;28;20403;-77
2022/07/26 09:46:52;;;;;;;4.97;1.30;;;24.80;50.40;;;24.41;36.87;97324.25;5073661;28;20899;-77
2022/07/26 09:49:20;;;;;;;2.45;1.15;;;24.80;51.20;;;24.63;37.01;97318.34;5073908;28;20491;-77
2022/07/26 09:51:50;;;;;;;5.55;1.30;;;25.00;51.30;;;25.00;36.50;97327.13;5073795;28;20411;-77
2022/07/26 09:54:29;;;;;;;3.72;1.00;;;25.40;50.80;;;25.00;36.07;97322.50;5073370;28;20827;-78
2022/07/26 09:56:55;;;;;;;3.08;1.13;;;25.60;50.00;;;24.89;37.71;97326.78;5073685;28;20964;-77
2022/07/26 09:59:24;;;;;;;3.00;1.20;;;25.40;51.80;;;25.00;37.43;97330.63;5073768;28;20486;-77
2022/07/26 10:01:52;;;;;;;15.48;1.27;;;25.50;52.00;;;25.11;36.95;97340.97;5073579;28;20483;-77
2022/07/26 10:04:19;;;;;;;3.00;0.90;;;25.60;51.30;;;25.19;37.93;97342.69;5073196;28;20399;-77
2022/07/26 10:06:51;;;;;;;4.80;1.10;;;25.60;52.10;;;25.01;37.25;97348.44;5073483;28;20395;-79
2022/07/26 10:09:18;;;;;;;2.95;1.02;;;25.50;52.30;;;24.97;38.31;97352.97;5072523;28;20896;-77
2022/07/26 10:11:51;;;;;;;5.32;1.17;;;25.50;52.10;;;24.98;37.53;97341.00;5073349;28;20423;-77
2022/07/26 10:14:38;;;;;;;4.20;1.20;;;25.60;51.30;;;25.20;36.72;97347.78;5071714;28;20754;-77
2022/07/26 10:17:44;;;;;;;2.45;1.13;;;25.70;51.00;;;25.16;37.02;97340.69;5073386;28;20457;-78
2022/07/26 10:20:38;;;;;;;2.67;0.90;;;25.70;51.80;;;25.43;38.36;97351.50;5073392;28;20458;-78
2022/07/26 10:23:37;;;;;;;4.10;0.97;;;25.90;52.60;;;25.71;36.01;97343.31;5072873;28;20392;-76